Time;durP1;ratioP1;P1;durP2;ratioP2;P2;SDS_P1;SDS_P2;PMS_P1;PMS_P2;Temp;Humidity;BMP_temperature;BMP_pressure;BME280_temperature;BME280_humidity;BME280_pressure;Samples;Min_cycle;Max_cycle;Signal;HPM_P1;HPM_P2
2022/04/02 00:00:52;;;;;;;;;;;17.90;49.30;;;;;;4984071;28;20005;-50
2022/04/02 00:03:19;;;;;;;;;;;17.90;49.50;;;;;;4983158;28;19989;-49
2022/04/02 00:05:45;;;;;;;;;;;17.90;49.60;;;;;;4983783;28;20442;-49
2022/04/02 00:08:10;;;;;;;;;;;17.90;49.60;;;;;;4982444;28;19914;-49
2022/04/02 00:10:35;;;;;;;;;;;17.90;49.60;;;;;;4964341;28;19925;-50
2022/04/02 00:13:01;;;;;;;;;;;17.90;49.60;;;;;;4982124;28;19960;-49
2022/04/02 00:15:26;;;;;;;;;;;17.90;49.40;;;;;;4965239;28;19914;-50
2022/04/02 00:17:52;;;;;;;;;;;17.90;49.40;;;;;;4982207;28;19930;-50
2022/04/02 00:20:17;;;;;;;;;;;17.90;49.70;;;;;;4982000;28;20667;-49
2022/04/02 00:23:35;;;;;;;;;;;17.80;49.40;;;;;;4982534;28;19951;-51
2022/04/02 00:25:28;;;;;;;;;;;17.80;49.60;;;;;;4981289;28;20552;-50
2022/04/02 00:27:54;;;;;;;;;;;17.80;49.50;;;;;;4981884;28;19960;-49
2022/04/02 00:30:19;;;;;;;;;;;17.90;49.50;;;;;;4981432;28;19918;-47
2022/04/02 00:32:45;;;;;;;;;;;17.80;49.60;;;;;;4982421;28;19914;-48
2022/04/02 00:35:10;;;;;;;;;;;17.80;49.70;;;;;;4982046;28;19913;-50
2022/04/02 00:37:36;;;;;;;;;;;17.80;49.70;;;;;;4981840;28;19936;-50
2022/04/02 00:40:01;;;;;;;;;;;17.80;49.60;;;;;;4981739;28;19914;-47
2022/04/02 00:42:27;;;;;;;;;;;17.90;49.80;;;;;;4982373;28;19922;-50
2022/04/02 00:44:52;;;;;;;;;;;17.90;49.80;;;;;;4981621;28;19917;-49
2022/04/02 00:47:20;;;;;;;;;;;17.80;49.80;;;;;;4981920;28;20000;-50
2022/04/02 00:49:46;;;;;;;;;;;17.80;49.60;;;;;;4981355;28;20401;-49
2022/04/02 00:52:11;;;;;;;;;;;17.80;50.30;;;;;;4981690;28;19914;-49
2022/04/02 00:54:37;;;;;;;;;;;17.90;50.00;;;;;;4981316;28;19918;-49
2022/04/02 00:57:02;;;;;;;;;;;17.80;49.80;;;;;;4964531;28;20299;-50
2022/04/02 00:59:27;;;;;;;;;;;17.80;49.90;;;;;;4981386;28;19921;-49
2022/04/02 01:01:53;;;;;;;;;;;17.80;49.90;;;;;;4980847;28;19914;-49
2022/04/02 01:04:19;;;;;;;;;;;17.80;50.00;;;;;;4981709;28;20374;-49
2022/04/02 01:06:44;;;;;;;;;;;17.80;49.90;;;;;;4982298;28;19914;-49
2022/04/02 01:09:10;;;;;;;;;;;17.80;49.90;;;;;;4964174;28;20375;-50
2022/04/02 01:11:36;;;;;;;;;;;17.80;50.50;;;;;;4982124;28;19922;-50
2022/04/02 01:14:01;;;;;;;;;;;17.80;50.00;;;;;;4981445;28;19914;-50
2022/04/02 01:16:27;;;;;;;;;;;17.80;49.90;;;;;;4981362;28;19914;-50
2022/04/02 01:18:52;;;;;;;;;;;17.80;49.90;;;;;;4980686;28;19925;-49
2022/04/02 01:21:18;;;;;;;;;;;17.90;50.00;;;;;;4981417;28;19964;-50
2022/04/02 01:23:43;;;;;;;;;;;17.90;49.90;;;;;;4981816;28;19920;-50
2022/04/02 01:26:09;;;;;;;;;;;17.90;49.80;;;;;;4981327;28;19924;-53
2022/04/02 01:28:34;;;;;;;;;;;17.90;49.90;;;;;;4980678;28;19918;-48
2022/04/02 01:31:01;;;;;;;;;;;17.90;49.90;;;;;;4963785;28;19914;-50
2022/04/02 01:33:26;;;;;;;;;;;17.90;49.80;;;;;;4964435;28;20318;-49
2022/04/02 01:36:01;;;;;;;;;;;17.90;49.70;;;;;;4963758;28;19925;-51
2022/04/02 01:38:27;;;;;;;;;;;17.90;49.80;;;;;;4963627;28;19952;-48
2022/04/02 01:40:53;;;;;;;;;;;18.00;49.60;;;;;;4981844;28;19945;-50
2022/04/02 01:43:19;;;;;;;;;;;18.00;49.70;;;;;;4963882;28;19914;-50
2022/04/02 01:45:44;;;;;;;;;;;17.90;49.70;;;;;;4981028;28;19925;-48
2022/04/02 01:48:10;;;;;;;;;;;17.90;49.80;;;;;;4980745;28;20805;-50
2022/04/02 01:50:36;;;;;;;;;;;18.00;49.70;;;;;;4980038;28;20128;-48
2022/04/02 01:53:01;;;;;;;;;;;17.90;49.70;;;;;;4981010;28;19914;-50
2022/04/02 01:55:26;;;;;;;;;;;17.90;49.70;;;;;;4980002;28;20393;-49
2022/04/02 01:57:52;;;;;;;;;;;17.90;49.60;;;;;;4980911;28;19933;-50
2022/04/02 02:00:17;;;;;;;;;;;17.90;49.60;;;;;;4980235;28;19914;-48
2022/04/02 02:02:43;;;;;;;;;;;17.90;49.50;;;;;;4981320;28;19914;-48
2022/04/02 02:05:09;;;;;;;;;;;17.90;49.60;;;;;;4980479;28;20488;-49
2022/04/02 02:07:34;;;;;;;;;;;17.90;49.40;;;;;;4980932;28;19997;-49
2022/04/02 02:10:00;;;;;;;;;;;17.90;49.50;;;;;;4980286;28;19948;-49
2022/04/02 02:12:25;;;;;;;;;;;17.80;49.40;;;;;;4980187;28;19914;-49
2022/04/02 02:14:51;;;;;;;;;;;17.80;49.50;;;;;;4980307;28;19956;-50
2022/04/02 02:17:19;;;;;;;;;;;17.80;49.30;;;;;;4979615;28;20151;-49
2022/04/02 02:19:44;;;;;;;;;;;17.70;49.40;;;;;;4980312;28;20402;-51
2022/04/02 02:22:11;;;;;;;;;;;17.60;49.40;;;;;;4980426;28;19968;-50
2022/04/02 02:24:36;;;;;;;;;;;17.60;49.50;;;;;;4980579;28;19926;-50
2022/04/02 02:27:02;;;;;;;;;;;17.50;49.60;;;;;;4980061;28;19964;-48
2022/04/02 02:29:28;;;;;;;;;;;17.50;49.70;;;;;;4979191;28;19918;-48
2022/04/02 02:31:53;;;;;;;;;;;17.50;49.70;;;;;;4980092;28;19914;-49
2022/04/02 02:37:03;;;;;;;;;;;17.40;49.80;;;;;;4979951;28;20117;-49
2022/04/02 02:39:28;;;;;;;;;;;17.40;49.70;;;;;;4979508;28;20454;-50
2022/04/02 02:41:53;;;;;;;;;;;17.30;49.90;;;;;;4979897;28;19914;-50
2022/04/02 02:44:19;;;;;;;;;;;17.30;49.90;;;;;;4979623;28;20390;-50
2022/04/02 02:46:44;;;;;;;;;;;17.20;50.00;;;;;;4979898;28;19914;-50
2022/04/02 02:49:10;;;;;;;;;;;17.20;50.10;;;;;;4979942;28;19920;-49
2022/04/02 02:51:36;;;;;;;;;;;17.30;49.90;;;;;;4979393;28;19914;-50
2022/04/02 02:54:01;;;;;;;;;;;17.30;49.70;;;;;;4979779;28;19913;-50
2022/04/02 02:56:27;;;;;;;;;;;17.30;49.90;;;;;;4978233;28;19976;-50
2022/04/02 02:58:52;;;;;;;;;;;17.20;49.80;;;;;;4978904;28;20596;-49
2022/04/02 03:01:18;;;;;;;;;;;17.30;50.00;;;;;;4979014;28;19914;-50
2022/04/02 03:03:43;;;;;;;;;;;17.30;49.90;;;;;;4979694;28;19914;-49
2022/04/02 03:06:09;;;;;;;;;;;17.30;49.80;;;;;;4978987;28;20572;-49
2022/04/02 03:08:34;;;;;;;;;;;17.30;49.70;;;;;;4978547;28;19965;-49
2022/04/02 03:11:00;;;;;;;;;;;17.30;49.60;;;;;;4979944;28;19924;-49
2022/04/02 03:13:26;;;;;;;;;;;17.30;49.60;;;;;;4980212;28;19914;-50
2022/04/02 03:15:51;;;;;;;;;;;17.30;49.50;;;;;;4979045;28;19917;-49
2022/04/02 03:18:17;;;;;;;;;;;17.40;49.60;;;;;;4979049;28;19922;-50
2022/04/02 03:20:42;;;;;;;;;;;17.30;49.60;;;;;;4978772;28;20390;-49
2022/04/02 03:23:09;;;;;;;;;;;17.30;49.60;;;;;;4979719;28;20555;-50
2022/04/02 03:25:34;;;;;;;;;;;17.30;49.60;;;;;;4982496;28;20357;-49
2022/04/02 03:28:00;;;;;;;;;;;17.30;49.50;;;;;;4983447;28;19914;-50
2022/04/02 03:30:25;;;;;;;;;;;17.40;49.60;;;;;;4982851;28;19914;-50
2022/04/02 03:32:51;;;;;;;;;;;17.40;49.70;;;;;;4981636;28;19922;-49
2022/04/02 03:35:18;;;;;;;;;;;17.40;49.70;;;;;;4982281;28;19914;-49
2022/04/02 03:37:44;;;;;;;;;;;17.30;49.50;;;;;;4983930;28;19918;-49
2022/04/02 03:40:10;;;;;;;;;;;17.40;49.60;;;;;;4983363;28;19913;-46
2022/04/02 03:42:36;;;;;;;;;;;17.40;49.60;;;;;;4983589;28;20008;-48
2022/04/02 03:45:02;;;;;;;;;;;17.40;49.60;;;;;;4982627;28;20656;-49
2022/04/02 03:47:27;;;;;;;;;;;17.40;49.50;;;;;;4983265;28;20526;-49
2022/04/02 03:49:53;;;;;;;;;;;17.40;50.10;;;;;;4983098;28;19921;-50
2022/04/02 03:52:18;;;;;;;;;;;17.50;49.40;;;;;;4986824;28;19986;-49
2022/04/02 03:54:44;;;;;;;;;;;17.50;49.40;;;;;;4985401;28;19920;-55
2022/04/02 03:57:09;;;;;;;;;;;17.50;49.40;;;;;;4985960;28;20001;-49
2022/04/02 03:59:35;;;;;;;;;;;17.50;49.40;;;;;;4968618;28;20375;-47
2022/04/02 04:02:00;;;;;;;;;;;17.50;49.30;;;;;;4982948;28;19972;-50
2022/04/02 04:04:26;;;;;;;;;;;17.50;49.40;;;;;;4983287;28;19922;-50
2022/04/02 04:06:52;;;;;;;;;;;17.50;49.30;;;;;;4981266;28;20362;-48
2022/04/02 04:09:17;;;;;;;;;;;17.60;49.40;;;;;;4981448;28;19921;-46
2022/04/02 04:11:43;;;;;;;;;;;17.60;49.40;;;;;;4982698;28;20644;-51
2022/04/02 04:14:09;;;;;;;;;;;17.60;49.30;;;;;;4983187;28;19946;-49
2022/04/02 04:16:35;;;;;;;;;;;17.60;49.20;;;;;;4978614;28;20315;-50
2022/04/02 04:19:00;;;;;;;;;;;17.70;49.20;;;;;;4962918;28;19952;-50
2022/04/02 04:21:26;;;;;;;;;;;17.70;49.10;;;;;;4981751;28;19917;-49
2022/04/02 04:23:51;;;;;;;;;;;17.60;49.00;;;;;;4982346;28;20583;-49
2022/04/02 04:26:17;;;;;;;;;;;17.70;49.20;;;;;;4982410;28;19917;-49
2022/04/02 04:28:42;;;;;;;;;;;17.70;49.10;;;;;;4980692;28;20677;-50
2022/04/02 04:31:08;;;;;;;;;;;17.70;49.10;;;;;;4977081;28;19997;-49
2022/04/02 04:33:37;;;;;;;;;;;17.70;48.90;;;;;;4979639;28;19913;-52
2022/04/02 04:36:03;;;;;;;;;;;17.70;49.00;;;;;;4978125;28;19936;-50
2022/04/02 04:38:28;;;;;;;;;;;17.70;49.00;;;;;;4978747;28;20434;-48
2022/04/02 04:40:54;;;;;;;;;;;17.70;48.90;;;;;;4944962;28;20071;-50
2022/04/02 04:43:19;;;;;;;;;;;17.80;49.00;;;;;;4981003;28;20287;-49
2022/04/02 04:45:44;;;;;;;;;;;17.70;48.90;;;;;;4980874;28;19922;-49
2022/04/02 04:48:10;;;;;;;;;;;17.80;49.00;;;;;;4982753;28;19913;-49
2022/04/02 04:50:36;;;;;;;;;;;17.80;49.00;;;;;;4982463;28;19925;-48
2022/04/02 04:53:02;;;;;;;;;;;17.80;48.90;;;;;;4979039;28;20399;-49
2022/04/02 04:55:28;;;;;;;;;;;17.80;48.90;;;;;;4983326;28;19914;-49
2022/04/02 04:57:53;;;;;;;;;;;17.80;48.80;;;;;;4981617;28;19925;-49
2022/04/02 05:00:18;;;;;;;;;;;17.80;48.80;;;;;;4984503;28;19913;-49
2022/04/02 05:02:44;;;;;;;;;;;17.80;48.50;;;;;;4969967;28;19921;-49
2022/04/02 05:05:13;;;;;;;;;;;17.90;48.90;;;;;;4984937;28;19924;-48
2022/04/02 05:07:39;;;;;;;;;;;17.90;48.60;;;;;;4963978;28;19947;-49
2022/04/02 05:10:04;;;;;;;;;;;17.90;48.80;;;;;;4963862;28;19976;-48
2022/04/02 05:12:30;;;;;;;;;;;18.00;48.70;;;;;;4954021;28;19922;-47
2022/04/02 05:14:56;;;;;;;;;;;18.00;48.60;;;;;;4982212;28;20167;-49
2022/04/02 05:17:21;;;;;;;;;;;18.00;48.60;;;;;;4978866;28;19961;-50
2022/04/02 05:19:47;;;;;;;;;;;18.10;48.60;;;;;;4981090;28;19940;-49
2022/04/02 05:22:12;;;;;;;;;;;18.10;48.30;;;;;;4978346;28;19914;-47
2022/04/02 05:24:38;;;;;;;;;;;18.10;48.60;;;;;;4981607;28;19922;-52
2022/04/02 05:27:03;;;;;;;;;;;18.10;48.70;;;;;;4997109;22;20113;-59
2022/04/02 05:29:29;;;;;;;;;;;18.20;48.70;;;;;;5000254;28;19995;-59
2022/04/02 05:31:55;;;;;;;;;;;18.10;48.70;;;;;;5001751;28;20000;-60
2022/04/02 05:34:20;;;;;;;;;;;18.20;48.80;;;;;;5001151;28;20337;-59
2022/04/02 05:36:46;;;;;;;;;;;18.10;48.80;;;;;;4983811;28;19914;-60
2022/04/02 05:39:11;;;;;;;;;;;18.10;48.90;;;;;;5000839;28;19921;-59
2022/04/02 05:41:37;;;;;;;;;;;18.10;48.90;;;;;;5001784;28;19924;-60
2022/04/02 05:44:03;;;;;;;;;;;18.10;48.90;;;;;;5000487;28;20287;-59
2022/04/02 05:46:29;;;;;;;;;;;18.10;48.80;;;;;;5000713;28;19913;-59
2022/04/02 05:48:54;;;;;;;;;;;18.10;48.80;;;;;;5001331;28;20437;-60
2022/04/02 05:51:20;;;;;;;;;;;18.10;48.80;;;;;;5001634;28;19913;-60
2022/04/02 05:53:45;;;;;;;;;;;18.10;48.90;;;;;;5001295;28;19917;-60
2022/04/02 05:56:11;;;;;;;;;;;18.10;48.80;;;;;;5001294;28;20180;-58
2022/04/02 05:58:36;;;;;;;;;;;18.10;48.80;;;;;;5000813;28;20008;-60
2022/04/02 06:01:02;;;;;;;;;;;18.10;48.80;;;;;;5001558;28;19960;-60
2022/04/02 06:03:27;;;;;;;;;;;18.00;48.80;;;;;;4980326;28;19914;-60
2022/04/02 06:05:53;;;;;;;;;;;18.00;48.60;;;;;;4964000;28;19921;-60
2022/04/02 06:08:18;;;;;;;;;;;18.00;48.60;;;;;;4980691;28;19921;-59
2022/04/02 06:10:47;;;;;;;;;;;18.00;48.60;;;;;;4981199;28;20316;-60
2022/04/02 06:13:12;;;;;;;;;;;18.00;48.60;;;;;;4980496;28;19914;-59
2022/04/02 06:15:38;;;;;;;;;;;18.00;48.30;;;;;;4980527;28;19913;-60
2022/04/02 06:18:03;;;;;;;;;;;18.00;48.40;;;;;;4980498;28;19967;-60
2022/04/02 06:20:29;;;;;;;;;;;18.00;48.40;;;;;;4978625;28;20279;-60
2022/04/02 06:22:54;;;;;;;;;;;18.00;48.60;;;;;;4979621;28;19968;-60
2022/04/02 06:25:20;;;;;;;;;;;17.90;48.50;;;;;;4980008;28;19922;-60
2022/04/02 06:27:46;;;;;;;;;;;18.00;48.50;;;;;;4980152;28;19973;-60
2022/04/02 06:30:12;;;;;;;;;;;18.00;48.60;;;;;;4980193;28;19953;-60
2022/04/02 06:32:38;;;;;;;;;;;18.00;48.90;;;;;;4979537;28;20697;-60
2022/04/02 06:35:04;;;;;;;;;;;18.00;49.20;;;;;;4980153;28;19914;-58
2022/04/02 06:37:32;;;;;;;;;;;18.00;49.40;;;;;;4979454;28;20009;-60
2022/04/02 06:39:58;;;;;;;;;;;17.90;49.20;;;;;;4979778;28;20579;-60
2022/04/02 06:42:23;;;;;;;;;;;18.00;49.70;;;;;;4980679;28;19976;-60
2022/04/02 06:44:49;;;;;;;;;;;17.90;49.60;;;;;;4962414;28;20151;-59
2022/04/02 06:47:14;;;;;;;;;;;17.90;49.50;;;;;;4979753;28;19913;-60
2022/04/02 06:49:40;;;;;;;;;;;17.90;49.30;;;;;;4979412;28;19922;-60
2022/04/02 06:52:05;;;;;;;;;;;17.90;49.40;;;;;;4979476;28;19986;-58
2022/04/02 06:54:31;;;;;;;;;;;17.90;49.30;;;;;;4979739;28;20350;-59
2022/04/02 06:56:57;;;;;;;;;;;17.90;49.20;;;;;;4979244;28;20083;-59
2022/04/02 06:59:23;;;;;;;;;;;17.90;49.20;;;;;;4978793;28;20035;-60
2022/04/02 07:01:48;;;;;;;;;;;17.90;49.00;;;;;;4979347;28;19918;-60
2022/04/02 07:04:13;;;;;;;;;;;17.80;48.60;;;;;;4979908;28;19937;-60
2022/04/02 07:06:44;;;;;;;;;;;17.80;49.00;;;;;;4979468;28;19949;-60
2022/04/02 07:09:09;;;;;;;;;;;17.80;49.00;;;;;;4978792;28;19914;-59
2022/04/02 07:11:35;;;;;;;;;;;17.90;49.00;;;;;;4980066;28;19979;-60
2022/04/02 07:14:00;;;;;;;;;;;17.80;48.90;;;;;;4980169;28;19914;-60
2022/04/02 07:16:27;;;;;;;;;;;17.80;49.00;;;;;;4979488;28;19920;-59
2022/04/02 07:18:52;;;;;;;;;;;17.80;49.00;;;;;;4978931;28;19924;-58
2022/04/02 07:21:18;;;;;;;;;;;17.80;49.00;;;;;;4978433;28;19914;-58
2022/04/02 07:23:43;;;;;;;;;;;17.80;49.10;;;;;;4999115;28;19972;-59
2022/04/02 07:26:09;;;;;;;;;;;17.80;49.10;;;;;;4982318;28;19918;-59
2022/04/02 07:28:34;;;;;;;;;;;17.80;49.30;;;;;;4999493;28;19944;-59
2022/04/02 07:31:00;;;;;;;;;;;17.70;49.50;;;;;;4982773;28;20012;-59
2022/04/02 07:33:25;;;;;;;;;;;17.70;50.00;;;;;;5000229;28;20228;-58
2022/04/02 07:36:09;;;;;;;;;;;17.70;50.70;;;;;;4988691;28;19914;-59
2022/04/02 07:38:39;;;;;;;;;;;17.70;50.00;;;;;;4979487;28;20012;-58
2022/04/02 07:41:16;;;;;;;;;;;17.70;50.00;;;;;;4979106;28;19968;-59
2022/04/02 07:43:54;;;;;;;;;;;17.70;50.10;;;;;;4980670;28;19914;-59
2022/04/02 07:46:27;;;;;;;;;;;17.70;50.00;;;;;;4979701;28;20403;-60
2022/04/02 07:48:52;;;;;;;;;;;17.60;50.10;;;;;;4961412;28;19940;-59
2022/04/02 07:51:20;;;;;;;;;;;17.60;50.00;;;;;;4961163;28;19914;-60
2022/04/02 07:53:47;;;;;;;;;;;17.60;50.20;;;;;;4976647;28;20417;-60
2022/04/02 07:56:13;;;;;;;;;;;17.50;50.10;;;;;;4976962;28;19914;-59
2022/04/02 07:58:38;;;;;;;;;;;17.50;50.20;;;;;;4959613;28;19914;-59
2022/04/02 08:01:04;;;;;;;;;;;17.50;50.30;;;;;;4960714;28;19918;-60
2022/04/02 08:03:30;;;;;;;;;;;17.40;50.50;;;;;;4978353;28;19929;-60
2022/04/02 08:05:55;;;;;;;;;;;17.40;50.60;;;;;;4977904;28;19918;-60
2022/04/02 08:08:23;;;;;;;;;;;17.40;50.50;;;;;;4978300;28;19914;-60
2022/04/02 08:10:51;;;;;;;;;;;17.40;51.20;;;;;;4985701;28;19913;-60
2022/04/02 08:13:16;;;;;;;;;;;17.30;50.60;;;;;;4984171;28;19920;-59
2022/04/02 08:15:42;;;;;;;;;;;17.40;50.70;;;;;;5001675;28;20559;-60
2022/04/02 08:18:07;;;;;;;;;;;17.40;50.50;;;;;;4999855;28;19920;-60
2022/04/02 08:20:33;;;;;;;;;;;17.40;50.20;;;;;;4999892;28;20374;-59
2022/04/02 08:22:58;;;;;;;;;;;17.40;50.10;;;;;;5000253;28;19913;-60
2022/04/02 08:25:24;;;;;;;;;;;17.40;50.00;;;;;;4995302;28;19918;-60
2022/04/02 08:27:52;;;;;;;;;;;17.50;50.10;;;;;;5000907;28;19922;-59
2022/04/02 08:30:27;;;;;;;;;;;17.40;49.90;;;;;;5001190;28;19924;-59
2022/04/02 08:32:57;;;;;;;;;;;17.50;50.10;;;;;;4983648;28;20516;-60
2022/04/02 08:35:26;;;;;;;;;;;17.50;50.00;;;;;;4983268;28;19967;-59
2022/04/02 08:38:07;;;;;;;;;;;17.40;50.00;;;;;;5001105;28;19913;-58
2022/04/02 08:40:51;;;;;;;;;;;17.60;50.00;;;;;;5000681;28;19921;-59
2022/04/02 08:43:36;;;;;;;;;;;17.60;49.90;;;;;;5001171;28;19967;-60
2022/04/02 08:46:19;;;;;;;;;;;17.60;49.70;;;;;;4998005;28;19917;-60
2022/04/02 08:48:56;;;;;;;;;;;17.70;49.60;;;;;;4963798;28;19914;-60
2022/04/02 08:51:40;;;;;;;;;;;17.80;49.50;;;;;;4963566;28;20467;-60
2022/04/02 08:54:06;;;;;;;;;;;17.80;49.40;;;;;;4981836;28;19914;-59
2022/04/02 08:56:33;;;;;;;;;;;17.90;49.30;;;;;;4948459;28;20313;-60
2022/04/02 08:59:04;;;;;;;;;;;18.00;49.10;;;;;;4963748;28;19921;-60
2022/04/02 09:01:37;;;;;;;;;;;18.00;48.90;;;;;;4981061;28;20321;-60
2022/04/02 09:04:08;;;;;;;;;;;18.10;48.90;;;;;;4981230;28;20004;-60
2022/04/02 09:06:52;;;;;;;;;;;18.10;48.90;;;;;;4981087;28;19922;-60
2022/04/02 09:09:36;;;;;;;;;;;18.10;48.90;;;;;;4980815;28;20039;-59
2022/04/02 09:12:21;;;;;;;;;;;18.20;48.90;;;;;;4981538;28;19993;-60
2022/04/02 09:15:05;;;;;;;;;;;18.10;48.90;;;;;;4981533;28;19920;-59
2022/04/02 09:17:50;;;;;;;;;;;18.20;48.90;;;;;;4981080;28;19914;-60
2022/04/02 09:20:39;;;;;;;;;;;18.10;48.70;;;;;;4964039;28;20496;-60
2022/04/02 09:23:07;;;;;;;;;;;18.20;48.90;;;;;;4969036;28;20414;-60
2022/04/02 09:25:51;;;;;;;;;;;18.20;48.70;;;;;;4980634;28;19925;-59
2022/04/02 09:28:40;;;;;;;;;;;18.20;48.80;;;;;;4998135;28;20008;-59
2022/04/02 09:31:13;;;;;;;;;;;18.30;48.60;;;;;;5003387;28;19914;-58
2022/04/02 09:33:56;;;;;;;;;;;18.30;48.50;;;;;;4982811;28;19924;-58
2022/04/02 09:36:21;;;;;;;;;;;18.30;48.70;;;;;;4984012;28;20400;-59
2022/04/02 09:38:55;;;;;;;;;;;18.30;48.80;;;;;;4982359;28;19914;-58
2022/04/02 09:41:30;;;;;;;;;;;18.40;48.90;;;;;;4964561;28;19914;-60
2022/04/02 09:43:58;;;;;;;;;;;18.50;48.90;;;;;;4980077;28;20510;-59
2022/04/02 09:46:31;;;;;;;;;;;18.60;48.90;;;;;;4980811;28;20071;-59
2022/04/02 09:49:00;;;;;;;;;;;18.60;48.70;;;;;;4980485;28;19993;-59
2022/04/02 09:51:29;;;;;;;;;;;18.70;48.80;;;;;;4963524;28;19986;-57
2022/04/02 09:54:04;;;;;;;;;;;18.70;48.70;;;;;;4963657;28;20001;-59
2022/04/02 09:56:39;;;;;;;;;;;18.70;48.90;;;;;;4981654;28;20391;-60
2022/04/02 09:59:05;;;;;;;;;;;18.80;49.00;;;;;;4981807;28;19917;-59
2022/04/02 10:01:33;;;;;;;;;;;18.80;48.90;;;;;;4965121;28;20411;-59
2022/04/02 10:03:58;;;;;;;;;;;18.80;49.20;;;;;;4964192;28;19920;-60
2022/04/02 10:06:24;;;;;;;;;;;18.70;49.20;;;;;;4981101;28;19922;-59
2022/04/02 10:09:25;;;;;;;;;;;18.70;49.80;;;;;;4980503;28;19914;-58
2022/04/02 10:11:52;;;;;;;;;;;18.60;49.90;;;;;;4882322;29;19932;-60
2022/04/02 10:14:22;;;;;;;;;;;18.60;50.00;;;;;;4960633;28;20314;-59
2022/04/02 10:16:49;;;;;;;;;;;18.60;50.40;;;;;;4980877;28;20206;-60
2022/04/02 10:19:14;;;;;;;;;;;18.60;50.60;;;;;;4980620;28;19936;-59
2022/04/02 10:21:39;;;;;;;;;;;18.80;51.10;;;;;;4980507;28;19918;-58
2022/04/02 10:24:21;;;;;;;;;;;18.80;51.10;;;;;;4980536;28;19913;-59
2022/04/02 10:26:51;;;;;;;;;;;18.80;50.90;;;;;;4980052;28;19918;-51
2022/04/02 10:29:19;;;;;;;;;;;18.90;51.70;;;;;;4980349;28;19953;-58
2022/04/02 10:32:02;;;;;;;;;;;18.90;52.40;;;;;;4946832;28;20358;-57
2022/04/02 10:34:40;;;;;;;;;;;18.90;51.80;;;;;;4955929;28;20585;-57
2022/04/02 10:37:10;;;;;;;;;;;18.90;52.40;;;;;;4956780;28;20017;-58
2022/04/02 10:39:37;;;;;;;;;;;18.90;51.50;;;;;;4960207;28;20017;-58
2022/04/02 10:42:03;;;;;;;;;;;18.90;51.70;;;;;;4957691;28;19921;-59
2022/04/02 10:44:32;;;;;;;;;;;18.80;51.20;;;;;;4977903;28;19918;-59
2022/04/02 10:46:57;;;;;;;;;;;18.70;50.90;;;;;;4976081;28;20387;-59
2022/04/02 10:49:26;;;;;;;;;;;18.70;50.60;;;;;;4993421;28;19920;-59
2022/04/02 10:51:52;;;;;;;;;;;18.70;50.80;;;;;;4980280;28;20362;-59
2022/04/02 10:54:19;;;;;;;;;;;18.60;50.50;;;;;;4999914;28;20017;-58
2022/04/02 10:56:45;;;;;;;;;;;18.60;50.30;;;;;;4979556;28;19964;-51
2022/04/02 10:59:18;;;;;;;;;;;18.60;50.60;;;;;;4998862;28;20298;-58
2022/04/02 11:01:44;;;;;;;;;;;18.50;50.20;;;;;;4998249;28;19913;-58
2022/04/02 11:04:30;;;;;;;;;;;18.50;50.00;;;;;;4999095;28;19914;-60
2022/04/02 11:06:57;;;;;;;;;;;18.50;49.80;;;;;;4996544;28;19918;-59
2022/04/02 11:09:28;;;;;;;;;;;18.50;50.30;;;;;;4998387;28;19940;-59
2022/04/02 11:11:55;;;;;;;;;;;18.40;49.80;;;;;;4996309;28;20425;-59
2022/04/02 11:14:20;;;;;;;;;;;18.40;49.70;;;;;;4981677;28;19913;-59
2022/04/02 11:16:46;;;;;;;;;;;18.40;51.20;;;;;;4997246;28;19913;-59
2022/04/02 11:22:01;;;;;;;;;;;18.30;51.80;;;;;;4985567;28;19921;-59
2022/04/02 11:24:28;;;;;;;;;;;18.30;52.10;;;;;;4980621;28;20099;-58
2022/04/02 11:26:53;;;;;;;;;;;18.30;51.80;;;;;;4984569;28;19951;-58
2022/04/02 11:29:19;;;;;;;;;;;18.30;52.10;;;;;;4974295;23;19930;-66
2022/04/02 11:31:45;;;;;;;;;;;18.30;52.30;;;;;;4974713;28;19923;-65
2022/04/02 11:34:10;;;;;;;;;;;18.30;52.60;;;;;;4943666;28;19922;-64
2022/04/02 11:36:42;;;;;;;;;;;18.30;52.10;;;;;;4974325;28;19915;-65
2022/04/02 11:39:10;;;;;;;;;;;18.40;52.70;;;;;;4948242;28;19968;-66
2022/04/02 11:41:38;;;;;;;;;;;18.40;52.50;;;;;;4961692;28;20412;-65
2022/04/02 11:44:07;;;;;;;;;;;18.30;51.80;;;;;;4963216;28;20053;-65
2022/04/02 11:46:51;;;;;;;;;;;18.20;52.10;;;;;;4966495;28;19925;-64
2022/04/02 11:49:27;;;;;;;;;;;18.10;51.30;;;;;;4964702;28;19991;-65
2022/04/02 11:52:19;;;;;;;;;;;18.10;50.50;;;;;;4967670;28;20445;-66
2022/04/02 11:54:44;;;;;;;;;;;18.10;50.20;;;;;;4963665;28;20330;-67
2022/04/02 11:57:13;;;;;;;;;;;18.00;48.40;;;;;;4981452;28;19918;-67
2022/04/02 11:59:54;;;;;;;;;;;18.00;47.90;;;;;;4964339;28;19937;-65
2022/04/02 12:02:53;;;;;;;;;;;18.10;47.40;;;;;;4966590;28;19921;-65
2022/04/02 12:05:20;;;;;;;;;;;18.10;47.10;;;;;;4924908;28;20812;-64
2022/04/02 12:07:49;;;;;;;;;;;18.20;46.30;;;;;;4966025;28;19918;-63
2022/04/02 12:10:15;;;;;;;;;;;18.30;46.70;;;;;;4966156;28;19919;-64
2022/04/02 12:12:41;;;;;;;;;;;18.40;47.10;;;;;;4966586;28;19976;-64
2022/04/02 12:15:10;;;;;;;;;;;18.50;47.20;;;;;;4966701;28;19957;-65
2022/04/02 12:17:36;;;;;;;;;;;18.40;47.70;;;;;;4965434;28;20302;-64
2022/04/02 12:20:02;;;;;;;;;;;18.40;48.00;;;;;;4965699;28;19925;-64
2022/04/02 12:22:30;;;;;;;;;;;18.40;48.30;;;;;;4966252;28;20297;-64
2022/04/02 12:24:56;;;;;;;;;;;18.50;48.40;;;;;;4966013;28;19925;-64
2022/04/02 12:27:23;;;;;;;;;;;18.50;48.20;;;;;;4966324;28;19914;-65
2022/04/02 12:29:49;;;;;;;;;;;18.60;47.70;;;;;;4964613;28;19926;-63
2022/04/02 12:32:15;;;;;;;;;;;18.60;48.10;;;;;;4965949;28;20021;-65
2022/04/02 12:34:41;;;;;;;;;;;18.70;47.90;;;;;;4964082;28;20883;-68
2022/04/02 12:37:06;;;;;;;;;;;18.80;48.00;;;;;;4964957;28;19921;-67
2022/04/02 12:39:32;;;;;;;;;;;18.80;47.70;;;;;;4963800;28;19914;-67
2022/04/02 12:41:57;;;;;;;;;;;18.90;47.70;;;;;;4965907;28;20029;-65
2022/04/02 12:44:25;;;;;;;;;;;19.00;47.60;;;;;;4965354;28;19918;-68
2022/04/02 12:46:52;;;;;;;;;;;19.00;47.70;;;;;;4965264;28;19943;-63
2022/04/02 12:49:29;;;;;;;;;;;19.10;47.50;;;;;;4963666;28;20385;-66
2022/04/02 12:52:13;;;;;;;;;;;19.00;47.40;;;;;;4964529;28;20014;-66
2022/04/02 12:54:50;;;;;;;;;;;19.10;47.50;;;;;;4965983;28;20000;-66
2022/04/02 12:57:15;;;;;;;;;;;19.10;47.40;;;;;;4945371;28;19925;-67
2022/04/02 12:59:42;;;;;;;;;;;19.10;47.40;;;;;;4944819;28;19914;-67
2022/04/02 13:02:08;;;;;;;;;;;19.10;48.10;;;;;;4964237;28;19965;-67
2022/04/02 13:04:34;;;;;;;;;;;19.10;47.40;;;;;;4964214;28;19922;-67
2022/04/02 13:06:59;;;;;;;;;;;19.10;47.50;;;;;;4965492;28;20603;-64
2022/04/02 13:09:32;;;;;;;;;;;19.10;47.50;;;;;;4963193;28;19921;-66
2022/04/02 13:12:01;;;;;;;;;;;19.10;47.60;;;;;;4965165;28;19918;-66
2022/04/02 13:14:27;;;;;;;;;;;19.10;47.60;;;;;;4964946;28;19921;-64
2022/04/02 13:16:54;;;;;;;;;;;19.10;47.60;;;;;;4964944;28;19921;-64
2022/04/02 13:22:14;;;;;;;;;;;19.00;47.70;;;;;;4964498;28;19929;-65
2022/04/02 13:24:48;;;;;;;;;;;18.90;47.80;;;;;;4964542;28;20033;-65
2022/04/02 13:27:32;;;;;;;;;;;19.00;48.00;;;;;;4964602;28;19922;-65
2022/04/02 13:30:10;;;;;;;;;;;18.90;48.10;;;;;;4963623;28;19972;-66
2022/04/02 13:32:45;;;;;;;;;;;18.90;48.30;;;;;;4964350;28;19922;-65
2022/04/02 13:35:12;;;;;;;;;;;18.80;48.20;;;;;;4964796;28;20529;-64
2022/04/02 13:38:00;;;;;;;;;;;18.80;48.30;;;;;;4964161;28;19925;-67
2022/04/02 13:40:25;;;;;;;;;;;18.70;48.40;;;;;;4963569;28;19914;-66
2022/04/02 13:42:51;;;;;;;;;;;18.70;48.40;;;;;;4962596;28;20357;-67
2022/04/02 13:45:16;;;;;;;;;;;18.70;48.60;;;;;;4962753;28;19925;-65
2022/04/02 13:47:43;;;;;;;;;;;18.60;48.50;;;;;;4964535;28;20586;-65
2022/04/02 13:50:10;;;;;;;;;;;18.60;48.70;;;;;;4962523;28;19925;-66
2022/04/02 13:52:36;;;;;;;;;;;18.50;48.70;;;;;;4964152;28;20389;-67
2022/04/02 13:55:06;;;;;;;;;;;18.50;48.90;;;;;;4964704;28;19914;-66
2022/04/02 13:57:32;;;;;;;;;;;18.50;49.00;;;;;;4963238;28;19918;-65
2022/04/02 13:59:58;;;;;;;;;;;18.40;49.00;;;;;;4978919;28;19914;-67
2022/04/02 14:02:27;;;;;;;;;;;18.40;49.00;;;;;;4964214;28;20648;-66
2022/04/02 14:05:07;;;;;;;;;;;18.40;49.20;;;;;;4964759;28;19925;-66
2022/04/02 14:07:34;;;;;;;;;;;18.30;49.40;;;;;;4963236;28;19918;-65
2022/04/02 14:10:08;;;;;;;;;;;18.30;49.60;;;;;;4964315;28;20462;-66
2022/04/02 14:12:38;;;;;;;;;;;18.30;49.80;;;;;;4964013;28;20293;-66
2022/04/02 14:15:07;;;;;;;;;;;18.20;49.90;;;;;;4965900;28;19915;-63
2022/04/02 14:17:32;;;;;;;;;;;18.20;49.90;;;;;;4965134;28;20781;-66
2022/04/02 14:20:01;;;;;;;;;;;18.20;49.80;;;;;;4962179;28;19918;-66
2022/04/02 14:22:26;;;;;;;;;;;18.20;50.00;;;;;;4963880;28;19923;-65
2022/04/02 14:25:00;;;;;;;;;;;18.10;49.80;;;;;;4962723;28;19922;-64
2022/04/02 14:27:35;;;;;;;;;;;18.10;50.00;;;;;;4961695;28;20033;-67
2022/04/02 14:30:04;;;;;;;;;;;18.10;50.00;;;;;;4963556;28;19925;-67